PTKR 
Koror, Palau, NWS Office Airport
Federated States of Micronesia 
ICAOStatus
PTKROperational
LatitudeLongitude
7° 19' 48" N134° 28' 47" E
7.330000134.480000
Local Time (DST+9)UTC (GMT+9)
04-16-2014 07:17 pm04-16-2014 10:17
Sunrise-SunsetLocalUTC
Begin Civil Twilight05:30 am20:30
Sunrise05:52 am20:52
Sunset06:11 pm09:11
End Civil Twilight06:32 pm09:32

Current Weather

METARObservedFlight Conditions

PTKR 160950Z 36008KT 10SM -SHRA BKN016CB OVC110 27/25 A2980

Wed, Apr 16, 2014 @ 09:50 UTC(Z)

(27 Minutes ago)

MVFR

(Marginal Visual Flight Rules)

WindVisibilityCloudsConditions
360° at 8 knots (15 kph)
16000 meters
  • Broken at 1,600' AGL
  • Overcast at 11,000' AGL
  • Light Rain Showers
TemperaturesReadingsPrecipitation
Current Temp27°C (81°F)
Dewpoint25°C (77°F)
Heat Index31°C (88°F)
Humidity89%
Altimeter29.8"Hg
Sea Level Pressure1009mb
Field Elevation98.43'
None Recorded

Additional weather within a 92.6km radius of PTKR

Location METAR
PTRO

8.1km N (360°)

27 minutes ago
VFR VFR    MVFR MVFR    IFR IFR    LIFR LIFR    Unknown Unknown

Previous 24 hour Weather Graphs

  Loading...

CheckWX.com is intended as a tool to help pilots better visualize weather data.   It is not intended as a substitute for an official weather briefing obtained from a Flight Service Station.
CheckWX.com does not meet the FAA requirements for an official pre-flight weather briefing.   Therefore, it's important that pilots still call and obtain an official FSS pre-flight weather briefing.